sensor_id;sensor_type;location;lat;lon;timestamp;P1;durP1;ratioP1;P2;durP2;ratioP2
17741;SDS011;8993;51.822;-2.268;2024-01-30T00:04:44;6.48;;;1.06;;
17741;SDS011;8993;51.822;-2.268;2024-01-30T00:09:48;5.59;;;0.98;;
17741;SDS011;8993;51.822;-2.268;2024-01-30T00:14:54;6.72;;;1.04;;
17741;SDS011;8993;51.822;-2.268;2024-01-30T00:19:56;5.89;;;1.04;;
17741;SDS011;8993;51.822;-2.268;2024-01-30T00:25:00;6.61;;;0.96;;
17741;SDS011;8993;51.822;-2.268;2024-01-30T00:30:04;6.36;;;1.01;;
17741;SDS011;8993;51.822;-2.268;2024-01-30T00:35:07;6.11;;;0.96;;
17741;SDS011;8993;51.822;-2.268;2024-01-30T00:40:11;7.06;;;1.11;;
17741;SDS011;8993;51.822;-2.268;2024-01-30T00:45:15;6.09;;;1.15;;
17741;SDS011;8993;51.822;-2.268;2024-01-30T00:50:18;6.72;;;1.34;;
17741;SDS011;8993;51.822;-2.268;2024-01-30T00:55:22;7.41;;;1.44;;
17741;SDS011;8993;51.822;-2.268;2024-01-30T01:00:26;7.32;;;1.46;;
17741;SDS011;8993;51.822;-2.268;2024-01-30T01:05:30;7.31;;;1.82;;
17741;SDS011;8993;51.822;-2.268;2024-01-30T01:10:33;9.64;;;2.02;;
17741;SDS011;8993;51.822;-2.268;2024-01-30T01:15:37;8.18;;;2.04;;
17741;SDS011;8993;51.822;-2.268;2024-01-30T01:20:41;9.34;;;2.13;;
17741;SDS011;8993;51.822;-2.268;2024-01-30T01:25:45;9.20;;;2.61;;
17741;SDS011;8993;51.822;-2.268;2024-01-30T01:30:49;13.15;;;3.82;;
17741;SDS011;8993;51.822;-2.268;2024-01-30T01:35:53;13.07;;;4.66;;
17741;SDS011;8993;51.822;-2.268;2024-01-30T01:40:57;13.43;;;5.12;;
17741;SDS011;8993;51.822;-2.268;2024-01-30T01:46:00;15.51;;;5.66;;
17741;SDS011;8993;51.822;-2.268;2024-01-30T01:51:04;11.99;;;3.95;;
17741;SDS011;8993;51.822;-2.268;2024-01-30T01:56:08;7.69;;;1.53;;
17741;SDS011;8993;51.822;-2.268;2024-01-30T02:01:12;8.39;;;2.09;;
17741;SDS011;8993;51.822;-2.268;2024-01-30T02:06:16;10.79;;;2.43;;
17741;SDS011;8993;51.822;-2.268;2024-01-30T02:11:19;10.84;;;3.21;;
17741;SDS011;8993;51.822;-2.268;2024-01-30T02:16:23;15.23;;;4.00;;
17741;SDS011;8993;51.822;-2.268;2024-01-30T02:21:27;16.72;;;4.84;;
17741;SDS011;8993;51.822;-2.268;2024-01-30T02:26:31;19.21;;;6.49;;
17741;SDS011;8993;51.822;-2.268;2024-01-30T02:31:35;22.11;;;7.67;;
17741;SDS011;8993;51.822;-2.268;2024-01-30T02:36:38;23.09;;;7.46;;
17741;SDS011;8993;51.822;-2.268;2024-01-30T02:41:42;22.98;;;7.87;;
17741;SDS011;8993;51.822;-2.268;2024-01-30T02:46:46;29.44;;;9.03;;
17741;SDS011;8993;51.822;-2.268;2024-01-30T02:51:50;27.72;;;7.91;;
17741;SDS011;8993;51.822;-2.268;2024-01-30T02:56:53;23.69;;;6.86;;
17741;SDS011;8993;51.822;-2.268;2024-01-30T03:01:57;19.16;;;5.68;;
17741;SDS011;8993;51.822;-2.268;2024-01-30T03:07:01;22.08;;;6.07;;
17741;SDS011;8993;51.822;-2.268;2024-01-30T03:12:05;18.01;;;4.96;;
17741;SDS011;8993;51.822;-2.268;2024-01-30T03:17:08;16.68;;;4.84;;
17741;SDS011;8993;51.822;-2.268;2024-01-30T03:22:12;10.07;;;2.31;;
17741;SDS011;8993;51.822;-2.268;2024-01-30T03:27:16;3.77;;;0.84;;
17741;SDS011;8993;51.822;-2.268;2024-01-30T03:32:20;2.30;;;0.46;;
17741;SDS011;8993;51.822;-2.268;2024-01-30T03:37:23;1.59;;;0.35;;
17741;SDS011;8993;51.822;-2.268;2024-01-30T03:42:27;1.80;;;0.36;;
17741;SDS011;8993;51.822;-2.268;2024-01-30T03:47:30;3.00;;;0.66;;
17741;SDS011;8993;51.822;-2.268;2024-01-30T03:52:34;1.11;;;0.28;;
17741;SDS011;8993;51.822;-2.268;2024-01-30T03:57:38;0.70;;;0.24;;
17741;SDS011;8993;51.822;-2.268;2024-01-30T04:02:42;0.95;;;0.25;;
17741;SDS011;8993;51.822;-2.268;2024-01-30T04:07:45;0.89;;;0.25;;
17741;SDS011;8993;51.822;-2.268;2024-01-30T04:12:49;0.74;;;0.19;;
17741;SDS011;8993;51.822;-2.268;2024-01-30T04:17:52;1.37;;;0.35;;
17741;SDS011;8993;51.822;-2.268;2024-01-30T04:22:56;2.25;;;0.54;;
17741;SDS011;8993;51.822;-2.268;2024-01-30T04:28:00;2.37;;;0.62;;
17741;SDS011;8993;51.822;-2.268;2024-01-30T04:33:04;2.23;;;0.64;;
17741;SDS011;8993;51.822;-2.268;2024-01-30T04:38:07;2.01;;;0.45;;
17741;SDS011;8993;51.822;-2.268;2024-01-30T04:43:11;1.71;;;0.34;;
17741;SDS011;8993;51.822;-2.268;2024-01-30T04:48:15;1.52;;;0.36;;
17741;SDS011;8993;51.822;-2.268;2024-01-30T04:53:18;2.33;;;0.36;;
17741;SDS011;8993;51.822;-2.268;2024-01-30T04:58:22;2.06;;;0.36;;
17741;SDS011;8993;51.822;-2.268;2024-01-30T05:03:26;1.50;;;0.32;;
17741;SDS011;8993;51.822;-2.268;2024-01-30T05:08:31;1.96;;;0.30;;
17741;SDS011;8993;51.822;-2.268;2024-01-30T05:13:34;1.50;;;0.35;;
17741;SDS011;8993;51.822;-2.268;2024-01-30T05:18:38;1.96;;;0.43;;
17741;SDS011;8993;51.822;-2.268;2024-01-30T05:23:41;1.58;;;0.31;;
17741;SDS011;8993;51.822;-2.268;2024-01-30T05:28:45;1.23;;;0.26;;
17741;SDS011;8993;51.822;-2.268;2024-01-30T05:33:49;1.56;;;0.29;;
17741;SDS011;8993;51.822;-2.268;2024-01-30T05:38:52;2.25;;;0.36;;
17741;SDS011;8993;51.822;-2.268;2024-01-30T05:43:56;1.36;;;0.38;;
17741;SDS011;8993;51.822;-2.268;2024-01-30T05:48:59;2.86;;;0.44;;
17741;SDS011;8993;51.822;-2.268;2024-01-30T05:54:03;1.03;;;0.22;;
17741;SDS011;8993;51.822;-2.268;2024-01-30T05:59:07;2.46;;;0.51;;
17741;SDS011;8993;51.822;-2.268;2024-01-30T06:04:10;2.97;;;0.37;;
17741;SDS011;8993;51.822;-2.268;2024-01-30T06:09:14;2.23;;;0.36;;
17741;SDS011;8993;51.822;-2.268;2024-01-30T06:14:18;1.37;;;0.31;;
17741;SDS011;8993;51.822;-2.268;2024-01-30T06:19:21;2.52;;;0.38;;
17741;SDS011;8993;51.822;-2.268;2024-01-30T06:24:25;2.23;;;0.40;;
17741;SDS011;8993;51.822;-2.268;2024-01-30T06:29:29;2.10;;;0.39;;
17741;SDS011;8993;51.822;-2.268;2024-01-30T06:34:32;3.17;;;0.68;;
17741;SDS011;8993;51.822;-2.268;2024-01-30T06:39:36;4.64;;;0.83;;
17741;SDS011;8993;51.822;-2.268;2024-01-30T06:44:40;4.05;;;0.90;;
17741;SDS011;8993;51.822;-2.268;2024-01-30T06:49:43;4.94;;;0.82;;
17741;SDS011;8993;51.822;-2.268;2024-01-30T06:54:47;4.23;;;0.95;;
17741;SDS011;8993;51.822;-2.268;2024-01-30T06:59:50;5.15;;;0.91;;
17741;SDS011;8993;51.822;-2.268;2024-01-30T07:04:59;3.32;;;0.91;;
17741;SDS011;8993;51.822;-2.268;2024-01-30T07:10:02;4.26;;;0.92;;
17741;SDS011;8993;51.822;-2.268;2024-01-30T07:15:06;2.47;;;0.69;;
17741;SDS011;8993;51.822;-2.268;2024-01-30T07:20:11;3.28;;;0.64;;
17741;SDS011;8993;51.822;-2.268;2024-01-30T07:25:14;3.75;;;0.91;;
17741;SDS011;8993;51.822;-2.268;2024-01-30T07:30:18;4.40;;;0.89;;
17741;SDS011;8993;51.822;-2.268;2024-01-30T07:35:21;4.06;;;0.86;;
17741;SDS011;8993;51.822;-2.268;2024-01-30T07:40:25;3.02;;;0.53;;
17741;SDS011;8993;51.822;-2.268;2024-01-30T07:45:29;3.98;;;0.69;;
17741;SDS011;8993;51.822;-2.268;2024-01-30T07:50:32;3.45;;;0.52;;
17741;SDS011;8993;51.822;-2.268;2024-01-30T07:55:36;3.81;;;0.74;;
17741;SDS011;8993;51.822;-2.268;2024-01-30T08:00:40;3.29;;;0.60;;
17741;SDS011;8993;51.822;-2.268;2024-01-30T08:05:44;3.87;;;0.60;;
17741;SDS011;8993;51.822;-2.268;2024-01-30T08:10:47;2.71;;;0.54;;
17741;SDS011;8993;51.822;-2.268;2024-01-30T08:15:51;3.88;;;0.64;;
17741;SDS011;8993;51.822;-2.268;2024-01-30T08:20:55;4.86;;;0.89;;
17741;SDS011;8993;51.822;-2.268;2024-01-30T08:25:58;2.45;;;0.40;;
17741;SDS011;8993;51.822;-2.268;2024-01-30T08:31:03;3.19;;;0.55;;
17741;SDS011;8993;51.822;-2.268;2024-01-30T08:36:06;4.28;;;0.72;;
17741;SDS011;8993;51.822;-2.268;2024-01-30T08:41:10;4.33;;;0.65;;
17741;SDS011;8993;51.822;-2.268;2024-01-30T08:46:17;4.10;;;0.62;;
17741;SDS011;8993;51.822;-2.268;2024-01-30T08:51:17;3.23;;;0.68;;
17741;SDS011;8993;51.822;-2.268;2024-01-30T08:56:21;3.51;;;0.64;;
17741;SDS011;8993;51.822;-2.268;2024-01-30T09:01:25;4.68;;;0.79;;
17741;SDS011;8993;51.822;-2.268;2024-01-30T09:06:28;4.15;;;0.73;;
17741;SDS011;8993;51.822;-2.268;2024-01-30T09:11:47;3.45;;;0.67;;
17741;SDS011;8993;51.822;-2.268;2024-01-30T09:16:51;4.13;;;0.70;;
17741;SDS011;8993;51.822;-2.268;2024-01-30T09:21:55;4.11;;;0.77;;
17741;SDS011;8993;51.822;-2.268;2024-01-30T09:27:00;4.16;;;0.77;;
17741;SDS011;8993;51.822;-2.268;2024-01-30T09:32:03;4.86;;;0.82;;
17741;SDS011;8993;51.822;-2.268;2024-01-30T09:37:06;5.13;;;0.82;;
17741;SDS011;8993;51.822;-2.268;2024-01-30T09:42:11;4.05;;;0.70;;
17741;SDS011;8993;51.822;-2.268;2024-01-30T09:46:59;3.39;;;0.69;;
17741;SDS011;8993;51.822;-2.268;2024-01-30T09:52:03;4.14;;;0.71;;
17741;SDS011;8993;51.822;-2.268;2024-01-30T09:57:06;3.63;;;0.76;;
17741;SDS011;8993;51.822;-2.268;2024-01-30T10:02:13;4.37;;;0.70;;
17741;SDS011;8993;51.822;-2.268;2024-01-30T10:07:16;3.46;;;0.58;;
17741;SDS011;8993;51.822;-2.268;2024-01-30T10:12:20;4.17;;;0.74;;
17741;SDS011;8993;51.822;-2.268;2024-01-30T10:17:24;3.91;;;0.55;;
17741;SDS011;8993;51.822;-2.268;2024-01-30T10:22:27;2.32;;;0.46;;
17741;SDS011;8993;51.822;-2.268;2024-01-30T10:27:31;3.37;;;0.52;;
17741;SDS011;8993;51.822;-2.268;2024-01-30T10:32:35;2.46;;;0.49;;
17741;SDS011;8993;51.822;-2.268;2024-01-30T10:37:39;4.42;;;0.91;;
17741;SDS011;8993;51.822;-2.268;2024-01-30T10:42:43;4.06;;;0.90;;
17741;SDS011;8993;51.822;-2.268;2024-01-30T10:47:48;4.41;;;0.99;;
17741;SDS011;8993;51.822;-2.268;2024-01-30T10:52:50;4.77;;;1.04;;
17741;SDS011;8993;51.822;-2.268;2024-01-30T10:57:53;3.68;;;0.70;;
17741;SDS011;8993;51.822;-2.268;2024-01-30T11:02:57;4.00;;;0.72;;
17741;SDS011;8993;51.822;-2.268;2024-01-30T11:08:10;3.17;;;0.72;;
17741;SDS011;8993;51.822;-2.268;2024-01-30T11:13:10;3.13;;;0.65;;
17741;SDS011;8993;51.822;-2.268;2024-01-30T11:18:09;4.54;;;0.89;;
17741;SDS011;8993;51.822;-2.268;2024-01-30T11:23:14;3.75;;;0.74;;
17741;SDS011;8993;51.822;-2.268;2024-01-30T11:28:17;4.00;;;0.74;;
17741;SDS011;8993;51.822;-2.268;2024-01-30T11:33:27;3.31;;;0.79;;
17741;SDS011;8993;51.822;-2.268;2024-01-30T11:38:27;3.06;;;0.69;;
17741;SDS011;8993;51.822;-2.268;2024-01-30T11:43:31;3.20;;;0.77;;
17741;SDS011;8993;51.822;-2.268;2024-01-30T11:48:38;3.61;;;0.77;;
17741;SDS011;8993;51.822;-2.268;2024-01-30T11:53:38;2.56;;;0.66;;
17741;SDS011;8993;51.822;-2.268;2024-01-30T11:58:42;3.38;;;0.77;;
17741;SDS011;8993;51.822;-2.268;2024-01-30T12:03:49;3.09;;;0.72;;
17741;SDS011;8993;51.822;-2.268;2024-01-30T12:08:57;2.95;;;0.73;;
17741;SDS011;8993;51.822;-2.268;2024-01-30T12:13:54;3.26;;;0.59;;
17741;SDS011;8993;51.822;-2.268;2024-01-30T12:18:59;2.82;;;0.51;;
17741;SDS011;8993;51.822;-2.268;2024-01-30T12:24:03;3.41;;;0.69;;
17741;SDS011;8993;51.822;-2.268;2024-01-30T12:29:06;2.24;;;0.58;;
17741;SDS011;8993;51.822;-2.268;2024-01-30T12:34:13;2.91;;;0.55;;
17741;SDS011;8993;51.822;-2.268;2024-01-30T12:39:15;3.09;;;0.62;;
17741;SDS011;8993;51.822;-2.268;2024-01-30T12:44:19;3.45;;;0.60;;
17741;SDS011;8993;51.822;-2.268;2024-01-30T12:49:22;2.71;;;0.59;;
17741;SDS011;8993;51.822;-2.268;2024-01-30T12:54:26;2.57;;;0.51;;
17741;SDS011;8993;51.822;-2.268;2024-01-30T12:59:29;2.97;;;0.51;;
17741;SDS011;8993;51.822;-2.268;2024-01-30T13:04:33;3.18;;;0.57;;
17741;SDS011;8993;51.822;-2.268;2024-01-30T13:09:37;2.54;;;0.55;;
17741;SDS011;8993;51.822;-2.268;2024-01-30T13:14:40;3.80;;;0.71;;
17741;SDS011;8993;51.822;-2.268;2024-01-30T13:19:44;3.65;;;0.63;;
17741;SDS011;8993;51.822;-2.268;2024-01-30T13:24:50;3.49;;;0.65;;
17741;SDS011;8993;51.822;-2.268;2024-01-30T13:29:54;4.16;;;0.74;;
17741;SDS011;8993;51.822;-2.268;2024-01-30T13:34:58;3.44;;;0.58;;
17741;SDS011;8993;51.822;-2.268;2024-01-30T13:40:01;3.10;;;0.59;;
17741;SDS011;8993;51.822;-2.268;2024-01-30T13:45:05;3.10;;;0.61;;
17741;SDS011;8993;51.822;-2.268;2024-01-30T13:50:08;3.15;;;0.55;;
17741;SDS011;8993;51.822;-2.268;2024-01-30T13:55:12;3.82;;;0.61;;
17741;SDS011;8993;51.822;-2.268;2024-01-30T14:00:16;2.81;;;0.57;;
17741;SDS011;8993;51.822;-2.268;2024-01-30T14:05:19;3.41;;;0.71;;
17741;SDS011;8993;51.822;-2.268;2024-01-30T14:10:23;3.93;;;0.82;;
17741;SDS011;8993;51.822;-2.268;2024-01-30T14:15:27;3.12;;;0.64;;
17741;SDS011;8993;51.822;-2.268;2024-01-30T14:20:30;5.70;;;1.13;;
17741;SDS011;8993;51.822;-2.268;2024-01-30T14:25:34;5.97;;;1.16;;
17741;SDS011;8993;51.822;-2.268;2024-01-30T14:30:38;3.37;;;0.62;;
17741;SDS011;8993;51.822;-2.268;2024-01-30T14:35:41;3.29;;;0.79;;
17741;SDS011;8993;51.822;-2.268;2024-01-30T14:40:45;2.87;;;0.70;;
17741;SDS011;8993;51.822;-2.268;2024-01-30T14:45:48;3.82;;;0.69;;
17741;SDS011;8993;51.822;-2.268;2024-01-30T14:50:52;3.17;;;0.62;;
17741;SDS011;8993;51.822;-2.268;2024-01-30T14:55:55;3.55;;;0.61;;
17741;SDS011;8993;51.822;-2.268;2024-01-30T15:00:59;3.28;;;0.54;;
17741;SDS011;8993;51.822;-2.268;2024-01-30T15:06:03;4.03;;;0.64;;
17741;SDS011;8993;51.822;-2.268;2024-01-30T15:11:06;3.29;;;0.68;;
17741;SDS011;8993;51.822;-2.268;2024-01-30T15:16:10;3.36;;;0.66;;
17741;SDS011;8993;51.822;-2.268;2024-01-30T15:21:14;2.85;;;0.69;;
17741;SDS011;8993;51.822;-2.268;2024-01-30T15:26:17;2.85;;;0.67;;
17741;SDS011;8993;51.822;-2.268;2024-01-30T15:31:21;3.07;;;0.62;;
17741;SDS011;8993;51.822;-2.268;2024-01-30T15:36:25;3.89;;;0.78;;
17741;SDS011;8993;51.822;-2.268;2024-01-30T15:41:28;3.72;;;0.69;;
17741;SDS011;8993;51.822;-2.268;2024-01-30T15:46:32;4.28;;;0.77;;
17741;SDS011;8993;51.822;-2.268;2024-01-30T15:51:36;3.75;;;0.79;;
17741;SDS011;8993;51.822;-2.268;2024-01-30T15:56:40;5.25;;;1.02;;
17741;SDS011;8993;51.822;-2.268;2024-01-30T16:01:44;4.57;;;0.89;;
17741;SDS011;8993;51.822;-2.268;2024-01-30T16:06:47;3.23;;;0.73;;
17741;SDS011;8993;51.822;-2.268;2024-01-30T16:11:51;3.17;;;0.67;;
17741;SDS011;8993;51.822;-2.268;2024-01-30T16:16:55;3.23;;;0.67;;
17741;SDS011;8993;51.822;-2.268;2024-01-30T16:21:58;4.10;;;0.82;;
17741;SDS011;8993;51.822;-2.268;2024-01-30T16:27:02;5.09;;;1.20;;
17741;SDS011;8993;51.822;-2.268;2024-01-30T16:32:06;4.36;;;0.86;;
17741;SDS011;8993;51.822;-2.268;2024-01-30T16:37:09;4.18;;;0.77;;
17741;SDS011;8993;51.822;-2.268;2024-01-30T16:42:13;3.91;;;0.73;;
17741;SDS011;8993;51.822;-2.268;2024-01-30T16:47:17;4.30;;;0.91;;
17741;SDS011;8993;51.822;-2.268;2024-01-30T16:52:20;5.86;;;0.99;;
17741;SDS011;8993;51.822;-2.268;2024-01-30T16:57:24;12.75;;;3.35;;
17741;SDS011;8993;51.822;-2.268;2024-01-30T17:02:28;7.99;;;1.65;;
17741;SDS011;8993;51.822;-2.268;2024-01-30T17:07:31;5.31;;;1.01;;
17741;SDS011;8993;51.822;-2.268;2024-01-30T17:12:35;4.38;;;1.04;;
17741;SDS011;8993;51.822;-2.268;2024-01-30T17:17:39;4.29;;;1.00;;
17741;SDS011;8993;51.822;-2.268;2024-01-30T17:22:42;5.48;;;1.21;;
17741;SDS011;8993;51.822;-2.268;2024-01-30T17:27:46;6.17;;;1.40;;
17741;SDS011;8993;51.822;-2.268;2024-01-30T17:32:51;10.95;;;3.05;;
17741;SDS011;8993;51.822;-2.268;2024-01-30T17:37:54;15.73;;;4.52;;
17741;SDS011;8993;51.822;-2.268;2024-01-30T17:42:58;8.49;;;2.01;;
17741;SDS011;8993;51.822;-2.268;2024-01-30T17:48:02;7.92;;;1.92;;
17741;SDS011;8993;51.822;-2.268;2024-01-30T17:53:05;10.98;;;2.86;;
17741;SDS011;8993;51.822;-2.268;2024-01-30T17:58:09;9.06;;;2.30;;
17741;SDS011;8993;51.822;-2.268;2024-01-30T18:03:13;7.56;;;1.80;;
17741;SDS011;8993;51.822;-2.268;2024-01-30T18:08:17;7.71;;;1.86;;
17741;SDS011;8993;51.822;-2.268;2024-01-30T18:13:20;7.56;;;1.88;;
17741;SDS011;8993;51.822;-2.268;2024-01-30T18:18:24;8.26;;;1.99;;
17741;SDS011;8993;51.822;-2.268;2024-01-30T18:23:28;16.45;;;6.10;;
17741;SDS011;8993;51.822;-2.268;2024-01-30T18:28:32;15.82;;;5.61;;
17741;SDS011;8993;51.822;-2.268;2024-01-30T18:33:36;15.27;;;5.06;;
17741;SDS011;8993;51.822;-2.268;2024-01-30T18:38:39;11.70;;;3.63;;
17741;SDS011;8993;51.822;-2.268;2024-01-30T18:43:44;11.75;;;3.35;;
17741;SDS011;8993;51.822;-2.268;2024-01-30T18:48:47;12.18;;;3.73;;
17741;SDS011;8993;51.822;-2.268;2024-01-30T18:53:50;10.61;;;3.15;;
17741;SDS011;8993;51.822;-2.268;2024-01-30T18:58:54;12.64;;;4.22;;
17741;SDS011;8993;51.822;-2.268;2024-01-30T19:04:00;16.02;;;4.78;;
17741;SDS011;8993;51.822;-2.268;2024-01-30T19:09:02;16.38;;;5.77;;
17741;SDS011;8993;51.822;-2.268;2024-01-30T19:14:05;13.84;;;5.55;;
17741;SDS011;8993;51.822;-2.268;2024-01-30T19:19:11;12.78;;;4.78;;
17741;SDS011;8993;51.822;-2.268;2024-01-30T19:24:14;14.14;;;4.58;;
17741;SDS011;8993;51.822;-2.268;2024-01-30T19:29:17;14.04;;;4.69;;
17741;SDS011;8993;51.822;-2.268;2024-01-30T19:34:21;13.11;;;4.92;;
17741;SDS011;8993;51.822;-2.268;2024-01-30T19:39:25;13.69;;;4.73;;
17741;SDS011;8993;51.822;-2.268;2024-01-30T19:44:28;13.36;;;4.31;;
17741;SDS011;8993;51.822;-2.268;2024-01-30T19:49:32;12.84;;;4.37;;
17741;SDS011;8993;51.822;-2.268;2024-01-30T19:54:36;13.12;;;4.01;;
17741;SDS011;8993;51.822;-2.268;2024-01-30T19:59:40;13.06;;;4.44;;
17741;SDS011;8993;51.822;-2.268;2024-01-30T20:04:43;12.22;;;4.06;;
17741;SDS011;8993;51.822;-2.268;2024-01-30T20:09:47;11.56;;;3.89;;
17741;SDS011;8993;51.822;-2.268;2024-01-30T20:14:51;11.32;;;3.72;;
17741;SDS011;8993;51.822;-2.268;2024-01-30T20:19:54;9.89;;;3.13;;
17741;SDS011;8993;51.822;-2.268;2024-01-30T20:25:01;9.88;;;2.89;;
17741;SDS011;8993;51.822;-2.268;2024-01-30T20:30:05;10.50;;;3.45;;
17741;SDS011;8993;51.822;-2.268;2024-01-30T20:35:08;9.94;;;3.22;;
17741;SDS011;8993;51.822;-2.268;2024-01-30T20:40:12;10.48;;;3.39;;
17741;SDS011;8993;51.822;-2.268;2024-01-30T20:45:16;9.66;;;3.11;;
17741;SDS011;8993;51.822;-2.268;2024-01-30T20:50:19;8.63;;;2.89;;
17741;SDS011;8993;51.822;-2.268;2024-01-30T20:55:23;9.09;;;3.07;;
17741;SDS011;8993;51.822;-2.268;2024-01-30T21:00:27;9.48;;;3.02;;
17741;SDS011;8993;51.822;-2.268;2024-01-30T21:05:30;9.51;;;2.98;;
17741;SDS011;8993;51.822;-2.268;2024-01-30T21:10:34;8.65;;;2.91;;
17741;SDS011;8993;51.822;-2.268;2024-01-30T21:15:38;9.79;;;2.85;;
17741;SDS011;8993;51.822;-2.268;2024-01-30T21:20:42;8.76;;;2.94;;
17741;SDS011;8993;51.822;-2.268;2024-01-30T21:25:45;8.19;;;2.42;;
17741;SDS011;8993;51.822;-2.268;2024-01-30T21:30:49;8.84;;;2.46;;
17741;SDS011;8993;51.822;-2.268;2024-01-30T21:35:53;9.43;;;2.55;;
17741;SDS011;8993;51.822;-2.268;2024-01-30T21:40:56;9.46;;;2.65;;
17741;SDS011;8993;51.822;-2.268;2024-01-30T21:46:00;8.93;;;2.57;;
17741;SDS011;8993;51.822;-2.268;2024-01-30T21:51:04;9.25;;;2.54;;
17741;SDS011;8993;51.822;-2.268;2024-01-30T21:56:08;8.94;;;2.44;;
17741;SDS011;8993;51.822;-2.268;2024-01-30T22:01:11;8.63;;;2.24;;
17741;SDS011;8993;51.822;-2.268;2024-01-30T22:06:15;7.62;;;2.02;;
17741;SDS011;8993;51.822;-2.268;2024-01-30T22:11:19;7.15;;;2.03;;
17741;SDS011;8993;51.822;-2.268;2024-01-30T22:16:22;7.69;;;2.15;;
17741;SDS011;8993;51.822;-2.268;2024-01-30T22:21:26;8.39;;;2.35;;
17741;SDS011;8993;51.822;-2.268;2024-01-30T22:26:30;9.23;;;2.44;;
17741;SDS011;8993;51.822;-2.268;2024-01-30T22:31:34;8.73;;;2.51;;
17741;SDS011;8993;51.822;-2.268;2024-01-30T22:36:37;8.28;;;2.46;;
17741;SDS011;8993;51.822;-2.268;2024-01-30T22:41:41;8.90;;;2.69;;
17741;SDS011;8993;51.822;-2.268;2024-01-30T22:46:45;9.51;;;2.99;;
17741;SDS011;8993;51.822;-2.268;2024-01-30T22:51:48;10.39;;;3.27;;
17741;SDS011;8993;51.822;-2.268;2024-01-30T22:56:52;9.12;;;2.81;;
17741;SDS011;8993;51.822;-2.268;2024-01-30T23:01:56;8.89;;;2.94;;
17741;SDS011;8993;51.822;-2.268;2024-01-30T23:06:59;11.17;;;3.05;;
17741;SDS011;8993;51.822;-2.268;2024-01-30T23:12:03;8.91;;;2.74;;
17741;SDS011;8993;51.822;-2.268;2024-01-30T23:17:07;10.29;;;3.04;;
17741;SDS011;8993;51.822;-2.268;2024-01-30T23:22:11;10.71;;;3.05;;
17741;SDS011;8993;51.822;-2.268;2024-01-30T23:27:14;9.75;;;3.11;;
17741;SDS011;8993;51.822;-2.268;2024-01-30T23:32:21;10.36;;;3.34;;
17741;SDS011;8993;51.822;-2.268;2024-01-30T23:37:26;9.46;;;3.06;;
17741;SDS011;8993;51.822;-2.268;2024-01-30T23:42:29;9.45;;;3.02;;
17741;SDS011;8993;51.822;-2.268;2024-01-30T23:47:33;9.80;;;2.98;;
17741;SDS011;8993;51.822;-2.268;2024-01-30T23:52:40;10.63;;;3.61;;
17741;SDS011;8993;51.822;-2.268;2024-01-30T23:57:41;11.01;;;3.91;;
